sensor_id;sensor_type;location;lat;lon;timestamp;P1;durP1;ratioP1;P2;durP2;ratioP2
16326;SDS011;34812;49.846;9.610;2024-02-15T00:00:23;2.43;;;1.70;;
16326;SDS011;34812;49.846;9.610;2024-02-15T00:05:27;2.70;;;1.67;;
16326;SDS011;34812;49.846;9.610;2024-02-15T00:10:30;2.53;;;1.70;;
16326;SDS011;34812;49.846;9.610;2024-02-15T00:15:32;1.77;;;1.63;;
16326;SDS011;34812;49.846;9.610;2024-02-15T00:20:35;2.30;;;1.37;;
16326;SDS011;34812;49.846;9.610;2024-02-15T00:25:40;2.17;;;1.67;;
16326;SDS011;34812;49.846;9.610;2024-02-15T00:30:43;4.67;;;2.53;;
16326;SDS011;34812;49.846;9.610;2024-02-15T00:35:45;3.53;;;1.87;;
16326;SDS011;34812;49.846;9.610;2024-02-15T00:40:53;2.20;;;2.00;;
16326;SDS011;34812;49.846;9.610;2024-02-15T00:45:56;2.37;;;1.90;;
16326;SDS011;34812;49.846;9.610;2024-02-15T00:50:58;3.00;;;1.77;;
16326;SDS011;34812;49.846;9.610;2024-02-15T00:56:02;1.37;;;1.27;;
16326;SDS011;34812;49.846;9.610;2024-02-15T01:01:04;2.40;;;1.40;;
16326;SDS011;34812;49.846;9.610;2024-02-15T01:06:07;2.63;;;1.67;;
16326;SDS011;34812;49.846;9.610;2024-02-15T01:11:10;1.30;;;1.20;;
16326;SDS011;34812;49.846;9.610;2024-02-15T01:16:13;1.40;;;1.30;;
16326;SDS011;34812;49.846;9.610;2024-02-15T01:21:15;1.60;;;1.50;;
16326;SDS011;34812;49.846;9.610;2024-02-15T01:26:20;1.13;;;1.00;;
16326;SDS011;34812;49.846;9.610;2024-02-15T01:31:23;3.37;;;1.20;;
16326;SDS011;34812;49.846;9.610;2024-02-15T01:36:26;12.03;;;1.93;;
16326;SDS011;34812;49.846;9.610;2024-02-15T01:41:29;1.73;;;1.60;;
16326;SDS011;34812;49.846;9.610;2024-02-15T01:46:31;1.80;;;1.40;;
16326;SDS011;34812;49.846;9.610;2024-02-15T01:51:34;4.03;;;1.20;;
16326;SDS011;34812;49.846;9.610;2024-02-15T01:56:39;1.33;;;1.20;;
16326;SDS011;34812;49.846;9.610;2024-02-15T02:01:42;1.77;;;1.67;;
16326;SDS011;34812;49.846;9.610;2024-02-15T02:06:44;1.50;;;1.40;;
16326;SDS011;34812;49.846;9.610;2024-02-15T02:11:47;1.77;;;1.67;;
16326;SDS011;34812;49.846;9.610;2024-02-15T02:16:50;6.10;;;1.53;;
16326;SDS011;34812;49.846;9.610;2024-02-15T02:21:53;6.40;;;2.60;;
16326;SDS011;34812;49.846;9.610;2024-02-15T02:26:57;2.17;;;1.97;;
16326;SDS011;34812;49.846;9.610;2024-02-15T02:31:59;3.20;;;1.60;;
16326;SDS011;34812;49.846;9.610;2024-02-15T02:37:01;2.53;;;1.30;;
16326;SDS011;34812;49.846;9.610;2024-02-15T02:42:06;2.07;;;1.60;;
16326;SDS011;34812;49.846;9.610;2024-02-15T02:47:09;5.33;;;2.10;;
16326;SDS011;34812;49.846;9.610;2024-02-15T02:52:11;1.57;;;1.47;;
16326;SDS011;34812;49.846;9.610;2024-02-15T02:57:14;5.03;;;1.83;;
16326;SDS011;34812;49.846;9.610;2024-02-15T03:02:17;2.00;;;1.87;;
16326;SDS011;34812;49.846;9.610;2024-02-15T03:07:19;2.43;;;1.90;;
16326;SDS011;34812;49.846;9.610;2024-02-15T03:12:25;1.77;;;1.67;;
16326;SDS011;34812;49.846;9.610;2024-02-15T03:17:29;4.47;;;3.20;;
16326;SDS011;34812;49.846;9.610;2024-02-15T03:22:32;2.63;;;2.07;;
16326;SDS011;34812;49.846;9.610;2024-02-15T03:27:36;5.70;;;2.13;;
16326;SDS011;34812;49.846;9.610;2024-02-15T03:32:38;2.97;;;2.07;;
16326;SDS011;34812;49.846;9.610;2024-02-15T03:37:40;2.10;;;1.73;;
16326;SDS011;34812;49.846;9.610;2024-02-15T03:42:44;1.90;;;1.43;;
16326;SDS011;34812;49.846;9.610;2024-02-15T03:47:46;3.67;;;2.20;;
16326;SDS011;34812;49.846;9.610;2024-02-15T03:52:50;2.10;;;1.97;;
16326;SDS011;34812;49.846;9.610;2024-02-15T03:57:53;1.70;;;1.60;;
16326;SDS011;34812;49.846;9.610;2024-02-15T04:02:58;3.37;;;2.67;;
16326;SDS011;34812;49.846;9.610;2024-02-15T04:08:00;6.57;;;2.07;;
16326;SDS011;34812;49.846;9.610;2024-02-15T04:13:06;3.63;;;2.57;;
16326;SDS011;34812;49.846;9.610;2024-02-15T04:18:09;2.47;;;2.27;;
16326;SDS011;34812;49.846;9.610;2024-02-15T04:23:12;2.17;;;1.77;;
16326;SDS011;34812;49.846;9.610;2024-02-15T04:28:15;5.80;;;1.97;;
16326;SDS011;34812;49.846;9.610;2024-02-15T04:33:18;6.83;;;3.87;;
16326;SDS011;34812;49.846;9.610;2024-02-15T04:38:20;1.90;;;1.80;;
16326;SDS011;34812;49.846;9.610;2024-02-15T04:43:24;1.57;;;1.33;;
16326;SDS011;34812;49.846;9.610;2024-02-15T04:48:26;2.03;;;1.83;;
16326;SDS011;34812;49.846;9.610;2024-02-15T04:53:30;1.50;;;1.40;;
16326;SDS011;34812;49.846;9.610;2024-02-15T04:58:33;6.10;;;1.93;;
16326;SDS011;34812;49.846;9.610;2024-02-15T05:03:36;5.07;;;1.73;;
16326;SDS011;34812;49.846;9.610;2024-02-15T05:08:38;3.07;;;1.70;;
16326;SDS011;34812;49.846;9.610;2024-02-15T05:13:44;3.93;;;2.37;;
16326;SDS011;34812;49.846;9.610;2024-02-15T05:18:46;5.93;;;2.87;;
16326;SDS011;34812;49.846;9.610;2024-02-15T05:23:48;4.10;;;2.17;;
16326;SDS011;34812;49.846;9.610;2024-02-15T05:28:53;4.47;;;2.30;;
16326;SDS011;34812;49.846;9.610;2024-02-15T05:33:56;3.73;;;2.70;;
16326;SDS011;34812;49.846;9.610;2024-02-15T05:38:58;8.50;;;4.03;;
16326;SDS011;34812;49.846;9.610;2024-02-15T05:44:01;8.30;;;3.27;;
16326;SDS011;34812;49.846;9.610;2024-02-15T05:49:06;2.43;;;2.17;;
16326;SDS011;34812;49.846;9.610;2024-02-15T05:54:15;6.40;;;3.57;;
16326;SDS011;34812;49.846;9.610;2024-02-15T05:59:20;9.47;;;4.07;;
16326;SDS011;34812;49.846;9.610;2024-02-15T06:04:22;4.73;;;2.90;;
16326;SDS011;34812;49.846;9.610;2024-02-15T06:09:27;4.23;;;2.23;;
16326;SDS011;34812;49.846;9.610;2024-02-15T06:14:32;2.57;;;2.10;;
16326;SDS011;34812;49.846;9.610;2024-02-15T06:19:34;2.73;;;2.50;;
16326;SDS011;34812;49.846;9.610;2024-02-15T06:24:37;3.20;;;2.67;;
16326;SDS011;34812;49.846;9.610;2024-02-15T06:29:41;4.03;;;2.43;;
16326;SDS011;34812;49.846;9.610;2024-02-15T06:35:00;2.23;;;2.03;;
16326;SDS011;34812;49.846;9.610;2024-02-15T06:40:21;3.30;;;3.00;;
16326;SDS011;34812;49.846;9.610;2024-02-15T06:45:24;4.67;;;2.73;;
16326;SDS011;34812;49.846;9.610;2024-02-15T06:50:26;6.70;;;4.43;;
16326;SDS011;34812;49.846;9.610;2024-02-15T06:55:29;4.07;;;3.23;;
16326;SDS011;34812;49.846;9.610;2024-02-15T07:00:35;11.53;;;6.83;;
16326;SDS011;34812;49.846;9.610;2024-02-15T07:05:40;9.97;;;4.23;;
16326;SDS011;34812;49.846;9.610;2024-02-15T07:10:42;4.50;;;3.67;;
16326;SDS011;34812;49.846;9.610;2024-02-15T07:15:46;4.07;;;2.80;;
16326;SDS011;34812;49.846;9.610;2024-02-15T07:20:48;3.70;;;2.63;;
16326;SDS011;34812;49.846;9.610;2024-02-15T07:25:50;6.03;;;2.93;;
16326;SDS011;34812;49.846;9.610;2024-02-15T07:30:55;3.23;;;2.90;;
16326;SDS011;34812;49.846;9.610;2024-02-15T07:35:57;4.03;;;3.00;;
16326;SDS011;34812;49.846;9.610;2024-02-15T07:41:00;3.83;;;3.03;;
16326;SDS011;34812;49.846;9.610;2024-02-15T07:46:04;3.07;;;2.73;;
16326;SDS011;34812;49.846;9.610;2024-02-15T07:51:06;8.43;;;3.67;;
16326;SDS011;34812;49.846;9.610;2024-02-15T07:56:09;8.10;;;4.23;;
16326;SDS011;34812;49.846;9.610;2024-02-15T08:01:13;4.33;;;2.87;;
16326;SDS011;34812;49.846;9.610;2024-02-15T08:06:16;3.73;;;3.10;;
16326;SDS011;34812;49.846;9.610;2024-02-15T08:11:18;3.10;;;2.57;;
16326;SDS011;34812;49.846;9.610;2024-02-15T08:16:22;9.30;;;3.80;;
16326;SDS011;34812;49.846;9.610;2024-02-15T08:21:26;4.50;;;3.10;;
16326;SDS011;34812;49.846;9.610;2024-02-15T08:26:29;4.03;;;3.10;;
16326;SDS011;34812;49.846;9.610;2024-02-15T08:31:33;4.33;;;3.73;;
16326;SDS011;34812;49.846;9.610;2024-02-15T08:36:35;3.87;;;2.73;;
16326;SDS011;34812;49.846;9.610;2024-02-15T08:41:39;4.30;;;3.50;;
16326;SDS011;34812;49.846;9.610;2024-02-15T08:46:43;6.10;;;3.90;;
16326;SDS011;34812;49.846;9.610;2024-02-15T08:51:45;9.57;;;4.77;;
16326;SDS011;34812;49.846;9.610;2024-02-15T08:56:47;4.50;;;3.73;;
16326;SDS011;34812;49.846;9.610;2024-02-15T09:01:51;6.47;;;4.13;;
16326;SDS011;34812;49.846;9.610;2024-02-15T09:06:54;6.50;;;4.17;;
16326;SDS011;34812;49.846;9.610;2024-02-15T09:11:57;8.50;;;3.70;;
16326;SDS011;34812;49.846;9.610;2024-02-15T09:17:00;4.40;;;3.50;;
16326;SDS011;34812;49.846;9.610;2024-02-15T09:22:08;5.90;;;3.27;;
16326;SDS011;34812;49.846;9.610;2024-02-15T09:27:10;3.97;;;2.97;;
16326;SDS011;34812;49.846;9.610;2024-02-15T09:32:13;3.53;;;3.13;;
16326;SDS011;34812;49.846;9.610;2024-02-15T09:37:16;4.07;;;2.50;;
16326;SDS011;34812;49.846;9.610;2024-02-15T09:42:18;5.50;;;2.92;;
16326;SDS011;34812;49.846;9.610;2024-02-15T09:47:21;4.32;;;2.33;;
16326;SDS011;34812;49.846;9.610;2024-02-15T09:52:24;2.20;;;2.00;;
16326;SDS011;34812;49.846;9.610;2024-02-15T09:57:27;3.47;;;1.42;;
16326;SDS011;34812;49.846;9.610;2024-02-15T10:02:31;3.42;;;1.80;;
16326;SDS011;34812;49.846;9.610;2024-02-15T10:07:33;2.28;;;1.40;;
16326;SDS011;34812;49.846;9.610;2024-02-15T10:12:36;1.85;;;1.38;;
16326;SDS011;34812;49.846;9.610;2024-02-15T10:17:40;1.85;;;1.10;;
16326;SDS011;34812;49.846;9.610;2024-02-15T10:22:42;2.47;;;1.58;;
16326;SDS011;34812;49.846;9.610;2024-02-15T10:27:45;3.13;;;1.23;;
16326;SDS011;34812;49.846;9.610;2024-02-15T10:32:48;1.27;;;1.02;;
16326;SDS011;34812;49.846;9.610;2024-02-15T10:37:50;1.50;;;1.00;;
16326;SDS011;34812;49.846;9.610;2024-02-15T10:42:53;4.65;;;1.20;;
16326;SDS011;34812;49.846;9.610;2024-02-15T10:47:57;4.30;;;1.05;;
16326;SDS011;34812;49.846;9.610;2024-02-15T10:52:59;2.85;;;0.80;;
16326;SDS011;34812;49.846;9.610;2024-02-15T10:58:05;1.50;;;0.98;;
16326;SDS011;34812;49.846;9.610;2024-02-15T11:03:09;1.58;;;0.73;;
16326;SDS011;34812;49.846;9.610;2024-02-15T11:08:13;2.47;;;0.68;;
16326;SDS011;34812;49.846;9.610;2024-02-15T11:13:17;3.63;;;0.80;;
16326;SDS011;34812;49.846;9.610;2024-02-15T11:23:41;2.78;;;0.77;;
16326;SDS011;34812;49.846;9.610;2024-02-15T11:28:44;1.60;;;0.65;;
16326;SDS011;34812;49.846;9.610;2024-02-15T11:33:50;1.75;;;0.80;;
16326;SDS011;34812;49.846;9.610;2024-02-15T11:38:53;2.45;;;0.73;;
16326;SDS011;34812;49.846;9.610;2024-02-15T11:43:56;1.08;;;0.60;;
16326;SDS011;34812;49.846;9.610;2024-02-15T11:48:58;1.00;;;0.68;;
16326;SDS011;34812;49.846;9.610;2024-02-15T11:54:02;3.13;;;0.63;;
16326;SDS011;34812;49.846;9.610;2024-02-15T11:59:08;1.13;;;0.50;;
16326;SDS011;34812;49.846;9.610;2024-02-15T12:04:18;1.70;;;0.50;;
16326;SDS011;34812;49.846;9.610;2024-02-15T12:09:39;0.40;;;0.40;;
16326;SDS011;34812;49.846;9.610;2024-02-15T12:14:59;2.03;;;0.55;;
16326;SDS011;34812;49.846;9.610;2024-02-15T12:20:19;0.47;;;0.47;;
16326;SDS011;34812;49.846;9.610;2024-02-15T12:25:26;4.35;;;0.80;;
16326;SDS011;34812;49.846;9.610;2024-02-15T12:30:33;0.40;;;0.38;;
16326;SDS011;34812;49.846;9.610;2024-02-15T12:35:38;1.17;;;0.35;;
16326;SDS011;34812;49.846;9.610;2024-02-15T12:40:43;1.63;;;0.52;;
16326;SDS011;34812;49.846;9.610;2024-02-15T12:45:45;3.92;;;0.52;;
16326;SDS011;34812;49.846;9.610;2024-02-15T12:50:48;1.58;;;0.40;;
16326;SDS011;34812;49.846;9.610;2024-02-15T12:55:54;0.30;;;0.30;;
16326;SDS011;34812;49.846;9.610;2024-02-15T13:00:57;0.32;;;0.32;;
16326;SDS011;34812;49.846;9.610;2024-02-15T13:06:00;1.38;;;0.68;;
16326;SDS011;34812;49.846;9.610;2024-02-15T13:11:04;0.63;;;0.50;;
16326;SDS011;34812;49.846;9.610;2024-02-15T13:16:08;0.40;;;0.40;;
16326;SDS011;34812;49.846;9.610;2024-02-15T13:21:10;1.20;;;0.38;;
16326;SDS011;34812;49.846;9.610;2024-02-15T13:26:14;2.58;;;0.63;;
16326;SDS011;34812;49.846;9.610;2024-02-15T13:31:17;0.40;;;0.40;;
16326;SDS011;34812;49.846;9.610;2024-02-15T13:36:21;0.30;;;0.30;;
16326;SDS011;34812;49.846;9.610;2024-02-15T13:41:25;1.55;;;0.30;;
16326;SDS011;34812;49.846;9.610;2024-02-15T13:46:27;1.15;;;0.30;;
16326;SDS011;34812;49.846;9.610;2024-02-15T13:51:30;0.75;;;0.40;;
16326;SDS011;34812;49.846;9.610;2024-02-15T13:56:36;1.15;;;0.50;;
16326;SDS011;34812;49.846;9.610;2024-02-15T14:01:39;0.82;;;0.40;;
16326;SDS011;34812;49.846;9.610;2024-02-15T14:06:45;0.80;;;0.40;;
16326;SDS011;34812;49.846;9.610;2024-02-15T14:11:50;2.15;;;0.40;;
16326;SDS011;34812;49.846;9.610;2024-02-15T14:16:52;4.95;;;0.60;;
16326;SDS011;34812;49.846;9.610;2024-02-15T14:21:54;4.05;;;0.63;;
16326;SDS011;34812;49.846;9.610;2024-02-15T14:26:58;1.02;;;0.45;;
16326;SDS011;34812;49.846;9.610;2024-02-15T14:32:00;1.40;;;0.52;;
16326;SDS011;34812;49.846;9.610;2024-02-15T14:37:19;3.38;;;0.50;;
16326;SDS011;34812;49.846;9.610;2024-02-15T14:42:23;0.32;;;0.30;;
16326;SDS011;34812;49.846;9.610;2024-02-15T14:47:26;0.68;;;0.35;;
16326;SDS011;34812;49.846;9.610;2024-02-15T14:52:28;1.55;;;0.40;;
16326;SDS011;34812;49.846;9.610;2024-02-15T14:57:32;0.20;;;0.20;;
16326;SDS011;34812;49.846;9.610;2024-02-15T15:02:35;0.55;;;0.40;;
16326;SDS011;34812;49.846;9.610;2024-02-15T15:07:37;0.30;;;0.30;;
16326;SDS011;34812;49.846;9.610;2024-02-15T15:12:58;2.65;;;0.50;;
16326;SDS011;34812;49.846;9.610;2024-02-15T15:18:00;0.77;;;0.57;;
16326;SDS011;34812;49.846;9.610;2024-02-15T15:23:04;4.68;;;1.23;;
16326;SDS011;34812;49.846;9.610;2024-02-15T15:28:08;1.98;;;0.70;;
16326;SDS011;34812;49.846;9.610;2024-02-15T15:33:11;1.50;;;0.50;;
16326;SDS011;34812;49.846;9.610;2024-02-15T15:38:13;3.72;;;0.63;;
16326;SDS011;34812;49.846;9.610;2024-02-15T15:43:16;1.63;;;0.57;;
16326;SDS011;34812;49.846;9.610;2024-02-15T15:48:19;1.95;;;0.52;;
16326;SDS011;34812;49.846;9.610;2024-02-15T15:53:21;1.02;;;0.50;;
16326;SDS011;34812;49.846;9.610;2024-02-15T15:58:25;4.35;;;0.43;;
16326;SDS011;34812;49.846;9.610;2024-02-15T16:03:27;5.10;;;0.70;;
16326;SDS011;34812;49.846;9.610;2024-02-15T16:08:30;2.92;;;0.60;;
16326;SDS011;34812;49.846;9.610;2024-02-15T16:13:33;2.80;;;0.63;;
16326;SDS011;34812;49.846;9.610;2024-02-15T16:18:37;0.40;;;0.40;;
16326;SDS011;34812;49.846;9.610;2024-02-15T16:23:39;0.65;;;0.30;;
16326;SDS011;34812;49.846;9.610;2024-02-15T16:28:43;0.88;;;0.60;;
16326;SDS011;34812;49.846;9.610;2024-02-15T16:33:45;3.35;;;0.70;;
16326;SDS011;34812;49.846;9.610;2024-02-15T16:38:47;1.67;;;0.55;;
16326;SDS011;34812;49.846;9.610;2024-02-15T16:43:50;0.80;;;0.50;;
16326;SDS011;34812;49.846;9.610;2024-02-15T16:48:56;0.45;;;0.45;;
16326;SDS011;34812;49.846;9.610;2024-02-15T16:53:59;0.40;;;0.40;;
16326;SDS011;34812;49.846;9.610;2024-02-15T16:59:06;2.88;;;0.70;;
16326;SDS011;34812;49.846;9.610;2024-02-15T17:04:09;2.00;;;0.67;;
16326;SDS011;34812;49.846;9.610;2024-02-15T17:09:15;1.57;;;0.57;;
16326;SDS011;34812;49.846;9.610;2024-02-15T17:14:19;0.60;;;0.43;;
16326;SDS011;34812;49.846;9.610;2024-02-15T17:19:21;2.10;;;0.70;;
16326;SDS011;34812;49.846;9.610;2024-02-15T17:24:23;5.10;;;0.70;;
16326;SDS011;34812;49.846;9.610;2024-02-15T17:29:26;6.77;;;3.83;;
16326;SDS011;34812;49.846;9.610;2024-02-15T17:34:28;4.23;;;3.13;;
16326;SDS011;34812;49.846;9.610;2024-02-15T17:39:30;5.50;;;3.50;;
16326;SDS011;34812;49.846;9.610;2024-02-15T17:44:34;4.27;;;3.10;;
16326;SDS011;34812;49.846;9.610;2024-02-15T17:49:37;2.83;;;2.03;;
16326;SDS011;34812;49.846;9.610;2024-02-15T17:54:40;3.97;;;2.20;;
16326;SDS011;34812;49.846;9.610;2024-02-15T17:59:43;7.80;;;4.87;;
16326;SDS011;34812;49.846;9.610;2024-02-15T18:04:45;11.43;;;6.33;;
16326;SDS011;34812;49.846;9.610;2024-02-15T18:09:49;8.77;;;3.97;;
16326;SDS011;34812;49.846;9.610;2024-02-15T18:14:53;4.87;;;2.73;;
16326;SDS011;34812;49.846;9.610;2024-02-15T18:19:55;11.17;;;3.43;;
16326;SDS011;34812;49.846;9.610;2024-02-15T18:24:59;6.33;;;3.33;;
16326;SDS011;34812;49.846;9.610;2024-02-15T18:30:04;7.17;;;4.23;;
16326;SDS011;34812;49.846;9.610;2024-02-15T18:35:09;6.50;;;4.57;;
16326;SDS011;34812;49.846;9.610;2024-02-15T18:40:12;8.27;;;4.80;;
16326;SDS011;34812;49.846;9.610;2024-02-15T18:45:16;7.80;;;4.40;;
16326;SDS011;34812;49.846;9.610;2024-02-15T18:50:19;9.60;;;6.13;;
16326;SDS011;34812;49.846;9.610;2024-02-15T18:55:23;7.80;;;5.17;;
16326;SDS011;34812;49.846;9.610;2024-02-15T19:00:27;6.80;;;3.80;;
16326;SDS011;34812;49.846;9.610;2024-02-15T19:05:29;6.47;;;3.90;;
16326;SDS011;34812;49.846;9.610;2024-02-15T19:10:31;11.77;;;5.43;;
16326;SDS011;34812;49.846;9.610;2024-02-15T19:15:37;9.57;;;3.63;;
16326;SDS011;34812;49.846;9.610;2024-02-15T19:20:39;4.63;;;3.50;;
16326;SDS011;34812;49.846;9.610;2024-02-15T19:25:42;4.90;;;3.57;;
16326;SDS011;34812;49.846;9.610;2024-02-15T19:30:46;4.47;;;3.27;;
16326;SDS011;34812;49.846;9.610;2024-02-15T19:35:48;18.83;;;8.43;;
16326;SDS011;34812;49.846;9.610;2024-02-15T19:40:53;30.00;;;13.17;;
16326;SDS011;34812;49.846;9.610;2024-02-15T19:45:56;16.23;;;8.17;;
16326;SDS011;34812;49.846;9.610;2024-02-15T19:51:01;12.83;;;5.30;;
16326;SDS011;34812;49.846;9.610;2024-02-15T19:56:03;11.03;;;4.33;;
16326;SDS011;34812;49.846;9.610;2024-02-15T20:01:06;16.37;;;8.00;;
16326;SDS011;34812;49.846;9.610;2024-02-15T20:06:14;11.00;;;7.50;;
16326;SDS011;34812;49.846;9.610;2024-02-15T20:11:16;9.03;;;5.73;;
16326;SDS011;34812;49.846;9.610;2024-02-15T20:16:20;5.97;;;4.47;;
16326;SDS011;34812;49.846;9.610;2024-02-15T20:21:22;5.87;;;3.77;;
16326;SDS011;34812;49.846;9.610;2024-02-15T20:26:24;7.87;;;3.40;;
16326;SDS011;34812;49.846;9.610;2024-02-15T20:31:31;7.70;;;3.97;;
16326;SDS011;34812;49.846;9.610;2024-02-15T20:36:33;4.93;;;3.00;;
16326;SDS011;34812;49.846;9.610;2024-02-15T20:41:35;3.33;;;2.73;;
16326;SDS011;34812;49.846;9.610;2024-02-15T20:46:38;2.67;;;2.27;;
16326;SDS011;34812;49.846;9.610;2024-02-15T20:51:40;9.17;;;3.20;;
16326;SDS011;34812;49.846;9.610;2024-02-15T20:56:43;4.03;;;2.90;;
16326;SDS011;34812;49.846;9.610;2024-02-15T21:01:48;8.77;;;4.90;;
16326;SDS011;34812;49.846;9.610;2024-02-15T21:06:52;4.80;;;3.03;;
16326;SDS011;34812;49.846;9.610;2024-02-15T21:11:55;4.83;;;3.37;;
16326;SDS011;34812;49.846;9.610;2024-02-15T21:16:58;6.80;;;3.50;;
16326;SDS011;34812;49.846;9.610;2024-02-15T21:22:00;4.77;;;3.63;;
16326;SDS011;34812;49.846;9.610;2024-02-15T21:27:04;5.70;;;3.53;;
16326;SDS011;34812;49.846;9.610;2024-02-15T21:32:08;11.67;;;4.43;;
16326;SDS011;34812;49.846;9.610;2024-02-15T21:37:14;4.50;;;3.27;;
16326;SDS011;34812;49.846;9.610;2024-02-15T21:42:23;4.70;;;3.47;;
16326;SDS011;34812;49.846;9.610;2024-02-15T21:47:27;8.83;;;5.03;;
16326;SDS011;34812;49.846;9.610;2024-02-15T21:52:29;5.83;;;4.50;;
16326;SDS011;34812;49.846;9.610;2024-02-15T21:57:31;6.40;;;4.57;;
16326;SDS011;34812;49.846;9.610;2024-02-15T22:02:35;5.57;;;4.13;;
16326;SDS011;34812;49.846;9.610;2024-02-15T22:07:37;4.50;;;3.80;;
16326;SDS011;34812;49.846;9.610;2024-02-15T22:12:40;4.90;;;3.40;;
16326;SDS011;34812;49.846;9.610;2024-02-15T22:17:43;9.43;;;4.23;;
16326;SDS011;34812;49.846;9.610;2024-02-15T22:22:45;13.47;;;3.97;;
16326;SDS011;34812;49.846;9.610;2024-02-15T22:27:47;3.53;;;2.80;;
16326;SDS011;34812;49.846;9.610;2024-02-15T22:32:51;4.83;;;3.30;;
16326;SDS011;34812;49.846;9.610;2024-02-15T22:37:53;3.63;;;2.93;;
16326;SDS011;34812;49.846;9.610;2024-02-15T22:42:55;6.70;;;3.33;;
16326;SDS011;34812;49.846;9.610;2024-02-15T22:47:58;9.53;;;4.53;;
16326;SDS011;34812;49.846;9.610;2024-02-15T22:53:00;4.90;;;2.50;;
16326;SDS011;34812;49.846;9.610;2024-02-15T22:58:03;3.90;;;2.87;;
16326;SDS011;34812;49.846;9.610;2024-02-15T23:03:07;3.43;;;3.00;;
16326;SDS011;34812;49.846;9.610;2024-02-15T23:08:09;3.70;;;3.03;;
16326;SDS011;34812;49.846;9.610;2024-02-15T23:13:11;5.40;;;3.17;;
16326;SDS011;34812;49.846;9.610;2024-02-15T23:18:14;7.43;;;4.77;;
16326;SDS011;34812;49.846;9.610;2024-02-15T23:23:17;9.97;;;4.17;;
16326;SDS011;34812;49.846;9.610;2024-02-15T23:28:20;3.83;;;2.93;;
16326;SDS011;34812;49.846;9.610;2024-02-15T23:33:23;5.00;;;4.27;;
16326;SDS011;34812;49.846;9.610;2024-02-15T23:38:26;6.87;;;3.27;;
16326;SDS011;34812;49.846;9.610;2024-02-15T23:43:45;3.07;;;2.77;;
16326;SDS011;34812;49.846;9.610;2024-02-15T23:48:49;6.17;;;3.20;;
16326;SDS011;34812;49.846;9.610;2024-02-15T23:53:51;4.47;;;3.13;;
16326;SDS011;34812;49.846;9.610;2024-02-15T23:58:53;5.73;;;3.13;;
